createdAt,value
2019-01-05T00:04:56.836Z,27.17
2019-01-05T00:10:51.919Z,18.25
2019-01-05T00:16:46.862Z,19.38
2019-01-05T00:22:41.861Z,15.68
2019-01-05T00:28:36.858Z,15.67
2019-01-05T00:34:31.877Z,15.95
2019-01-05T00:40:26.871Z,16.94
2019-01-05T00:46:21.869Z,22.58
2019-01-05T00:52:16.869Z,22.97
2019-01-05T00:58:11.882Z,18.37
2019-01-05T01:04:06.930Z,20.78
2019-01-05T01:10:01.891Z,17.27
2019-01-05T01:15:56.891Z,16.1
2019-01-05T01:21:51.876Z,17.07
2019-01-05T01:27:46.909Z,15.76
2019-01-05T01:33:41.943Z,14.61
2019-01-05T01:39:36.879Z,12.24
2019-01-05T01:45:31.900Z,12.5
2019-01-05T01:51:26.954Z,11.66
2019-01-05T01:57:21.919Z,12.3
2019-01-05T02:03:16.900Z,13.34
2019-01-05T02:09:11.904Z,11.26
2019-01-05T02:15:06.949Z,12.01
2019-01-05T02:21:01.951Z,11.31
2019-01-05T02:26:56.942Z,10.95
2019-01-05T02:32:51.964Z,11.34
2019-01-05T02:38:46.928Z,10.88
2019-01-05T02:44:41.996Z,13.55
2019-01-05T02:50:36.973Z,14
2019-01-05T02:56:31.918Z,12.49
2019-01-05T03:02:26.980Z,12.26
2019-01-05T03:08:21.934Z,11.84
2019-01-05T03:14:16.936Z,12.1
2019-01-05T03:20:11.951Z,12.54
2019-01-05T03:26:06.981Z,13.15
2019-01-05T03:32:01.964Z,12.93
2019-01-05T03:37:56.953Z,11.7
2019-01-05T03:43:51.997Z,11.8
2019-01-05T03:49:46.953Z,11.29
2019-01-05T03:55:42.034Z,11.06
2019-01-05T04:01:36.949Z,11.74
2019-01-05T04:07:31.952Z,11.45
2019-01-05T04:13:26.998Z,11.37
2019-01-05T04:19:21.994Z,11.21
2019-01-05T04:25:17.013Z,10.93
2019-01-05T04:31:12.022Z,10.53
2019-01-05T04:37:06.983Z,10.38
2019-01-05T04:43:01.997Z,10.5
2019-01-05T04:48:56.982Z,14.37
2019-01-05T04:54:52.024Z,14.46
2019-01-05T05:00:47.036Z,17.43
2019-01-05T05:06:42.011Z,15.61
2019-01-05T05:12:37.000Z,17.42
2019-01-05T05:18:32.002Z,18.98
2019-01-05T05:24:27.025Z,26.13
2019-01-05T05:30:22.028Z,21.45
2019-01-05T05:36:17.061Z,22.95
2019-01-05T05:42:12.039Z,26.58
2019-01-05T05:48:07.029Z,34.85
2019-01-05T05:54:02.011Z,27.49
2019-01-05T05:59:57.022Z,26.34
2019-01-05T06:05:52.009Z,24.3
2019-01-05T06:11:47.012Z,20.67
2019-01-05T06:17:42.062Z,17.88
2019-01-05T06:23:37.027Z,16.5
2019-01-05T06:29:32.130Z,16.21
2019-01-05T06:35:27.086Z,14.5
2019-01-05T06:41:22.016Z,10.54
2019-01-05T06:47:17.049Z,11.04
2019-01-05T06:53:12.046Z,10.26
2019-01-05T06:59:07.063Z,12.03
2019-01-05T07:05:02.095Z,9.82
2019-01-05T07:10:57.048Z,8.99
2019-01-05T07:16:52.118Z,11.21
2019-01-05T07:22:47.075Z,11.72
2019-01-05T07:28:42.057Z,11.82
2019-01-05T07:34:37.069Z,14.83
2019-01-05T07:40:32.060Z,46.97
2019-01-05T07:46:27.077Z,43.14
2019-01-05T07:52:22.105Z,30.74
2019-01-05T07:58:17.191Z,28.93
2019-01-05T08:04:12.146Z,10.83
2019-01-05T08:10:07.090Z,36.3
2019-01-05T08:16:02.079Z,46.68
2019-01-05T08:21:57.096Z,26.11
2019-01-05T08:27:52.082Z,26
2019-01-05T08:33:47.097Z,24.21
2019-01-05T08:39:42.091Z,23.29
2019-01-05T08:45:37.100Z,23.7
2019-01-05T08:51:32.100Z,29.47
2019-01-05T08:57:27.105Z,26.79
2019-01-05T09:03:22.153Z,31.08
2019-01-05T09:09:17.214Z,30.13
2019-01-05T09:15:12.115Z,31.26
2019-01-05T09:21:07.136Z,30.3
2019-01-05T09:27:02.122Z,33.22
2019-01-05T09:32:57.126Z,36.66
2019-01-05T09:38:52.119Z,45.47
2019-01-05T09:44:47.154Z,41.49
2019-01-05T09:50:42.145Z,39.7
2019-01-05T09:56:37.144Z,43.18
2019-01-05T10:02:32.147Z,49.44
2019-01-05T10:08:27.146Z,46.46
2019-01-05T10:14:22.156Z,45.66
2019-01-05T10:20:17.148Z,49.42
2019-01-05T10:26:12.149Z,46.8
2019-01-05T10:32:07.193Z,46.04
2019-01-05T10:38:02.153Z,45.4
2019-01-05T10:43:57.154Z,44.55
2019-01-05T10:49:52.161Z,47.02
2019-01-05T10:55:47.155Z,36.17
2019-01-05T11:01:42.194Z,37.76
2019-01-05T11:07:37.168Z,39.32
2019-01-05T11:13:32.179Z,33.55
2019-01-05T11:19:27.272Z,34.95
2019-01-05T11:25:22.199Z,40.53
2019-01-05T11:31:17.228Z,39.85
2019-01-05T11:37:12.196Z,35.41
2019-01-05T11:43:07.207Z,39.41
2019-01-05T11:49:02.216Z,40.33
2019-01-05T11:54:57.184Z,36.59
2019-01-05T12:00:52.281Z,26.98
2019-01-05T12:06:47.209Z,32.49
2019-01-05T12:12:42.215Z,42.36
2019-01-05T12:18:37.224Z,32.18
2019-01-05T12:24:32.228Z,30.66
2019-01-05T12:30:27.255Z,33.11
2019-01-05T12:36:22.217Z,33.08
2019-01-05T12:42:17.230Z,36.19
2019-01-05T12:48:12.221Z,35.76
2019-01-05T12:54:07.239Z,37.79
2019-01-05T13:00:02.259Z,38.99
2019-01-05T13:05:57.230Z,40.69
2019-01-05T13:11:52.243Z,40.94
2019-01-05T13:17:47.266Z,41.07
2019-01-05T13:23:42.230Z,45.48
2019-01-05T13:29:37.281Z,40.57
2019-01-05T13:35:32.248Z,38.32
2019-01-05T13:41:27.232Z,36.69
2019-01-05T13:47:22.291Z,33.07
2019-01-05T13:53:17.256Z,30.5
2019-01-05T13:59:12.294Z,27.17
2019-01-05T14:05:07.287Z,24.86
2019-01-05T14:11:02.282Z,28.09
2019-01-05T14:16:57.275Z,26.19
2019-01-05T14:22:52.279Z,24.61
2019-01-05T14:28:47.275Z,21.25
2019-01-05T14:34:42.294Z,22.52
2019-01-05T14:40:37.273Z,20.59
2019-01-05T14:46:32.307Z,19.82
2019-01-05T14:52:27.275Z,19.39
2019-01-05T14:58:22.285Z,18.47
2019-01-05T15:04:17.339Z,16.43
2019-01-05T15:10:12.312Z,15.96
2019-01-05T15:16:07.293Z,15.7
2019-01-05T15:22:02.340Z,14.75
2019-01-05T15:27:57.294Z,17.66
2019-01-05T15:33:52.338Z,20.54
2019-01-05T15:39:47.320Z,23.68
2019-01-05T15:45:42.324Z,26.91
2019-01-05T15:51:37.316Z,57.11
2019-01-05T15:57:32.338Z,60.6
2019-01-05T16:03:27.345Z,63
2019-01-05T16:09:22.375Z,47.85
2019-01-05T16:15:17.334Z,49.68
2019-01-05T16:21:12.335Z,30.24
2019-01-05T16:27:07.357Z,47.97
2019-01-05T16:33:02.389Z,27.47
2019-01-05T16:38:57.367Z,37.35
2019-01-05T16:44:52.363Z,41.45
2019-01-05T16:50:47.364Z,32.06
2019-01-05T16:56:42.344Z,33.79
2019-01-05T17:02:37.352Z,27.08
2019-01-05T17:08:32.435Z,29.27
2019-01-05T17:14:27.379Z,37.17
2019-01-05T17:20:22.375Z,30.05
2019-01-05T17:26:17.367Z,35.54
2019-01-05T17:32:12.387Z,31.63
2019-01-05T17:38:07.371Z,32.18
2019-01-05T17:44:02.402Z,44.29
2019-01-05T17:49:57.405Z,48.52
2019-01-05T17:55:52.393Z,36.78
2019-01-05T18:01:47.394Z,29.34
2019-01-05T18:07:42.421Z,33.8
2019-01-05T18:13:37.432Z,30.31
2019-01-05T18:19:32.435Z,41.56
2019-01-05T18:25:27.399Z,35.55
2019-01-05T18:31:22.412Z,37.83
2019-01-05T18:37:17.454Z,43.14
2019-01-05T18:43:12.408Z,38.43
2019-01-05T18:49:07.420Z,47.89
2019-01-05T18:55:02.438Z,60.51
2019-01-05T19:00:57.476Z,53.41
2019-01-05T19:06:52.443Z,47.17
2019-01-05T19:12:47.430Z,47.67
2019-01-05T19:18:42.522Z,40.36
2019-01-05T19:24:37.451Z,40.85
2019-01-05T19:30:32.473Z,42.39
2019-01-05T19:36:27.424Z,51.03
2019-01-05T19:42:22.436Z,41.1
2019-01-05T19:48:17.457Z,39.69
2019-01-05T19:54:12.421Z,35.51
2019-01-05T20:00:07.425Z,39.76
2019-01-05T20:06:02.429Z,46.42
2019-01-05T20:11:57.482Z,41.24
2019-01-05T20:17:52.448Z,43.47
2019-01-05T20:23:47.451Z,44.97
2019-01-05T20:29:42.527Z,29.25
2019-01-05T20:35:37.457Z,45.17
2019-01-05T20:41:32.470Z,33.25
2019-01-05T20:47:27.523Z,27.33
2019-01-05T20:53:22.543Z,35.4
2019-01-05T20:59:17.464Z,38.13
2019-01-05T21:05:12.486Z,52.47
2019-01-05T21:11:07.488Z,42.66
2019-01-05T21:17:02.472Z,41.86
2019-01-05T21:22:57.487Z,42.75
2019-01-05T21:28:52.486Z,37.1
2019-01-05T21:34:47.521Z,33.85
2019-01-05T21:40:42.505Z,36.37
2019-01-05T21:46:37.511Z,40.6
2019-01-05T21:52:32.525Z,41.51
2019-01-05T21:58:27.516Z,30.7
2019-01-05T22:04:22.489Z,27.29
2019-01-05T22:10:17.556Z,24.76
2019-01-05T22:16:12.520Z,24.63
2019-01-05T22:22:07.554Z,26.03
2019-01-05T22:28:02.577Z,24.61
2019-01-05T22:33:57.539Z,21.45
2019-01-05T22:39:52.519Z,24.8
2019-01-05T22:45:47.533Z,20.04
2019-01-05T22:51:42.567Z,19.05
2019-01-05T22:57:37.550Z,22.82
2019-01-05T23:03:32.578Z,27.21
2019-01-05T23:09:27.557Z,25.01
2019-01-05T23:15:22.551Z,25.33
2019-01-05T23:21:17.552Z,24.04
2019-01-05T23:27:12.537Z,24.95
2019-01-05T23:33:07.565Z,30.52
2019-01-05T23:39:02.592Z,21.09
2019-01-05T23:44:57.564Z,22.73
2019-01-05T23:50:52.547Z,28.25
2019-01-05T23:56:47.557Z,29.98
